Time;durP1;ratioP1;P1;durP2;ratioP2;P2;SDS_P1;SDS_P2;PMS_P1;PMS_P2;Temp;Humidity;BMP_temperature;BMP_pressure;BME280_temperature;BME280_humidity;BME280_pressure;Samples;Min_cycle;Max_cycle;Signal;HPM_P1;HPM_P2
2023/04/05 11:18:45;;;;;;;5.68;4.05;;;;;;;16.04;27.71;98672.22;7391139;19;19925;-79
2023/04/05 11:21:20;;;;;;;4.70;4.25;;;;;;;17.07;27.66;98671.25;7390058;19;19918;-79
2023/04/05 11:24:07;;;;;;;5.18;4.68;;;;;;;13.98;27.23;98672.69;7386423;19;19930;-79
2023/04/05 11:26:43;;;;;;;5.38;4.57;;;;;;;14.77;27.76;98663.88;7389175;19;19919;-79
2023/04/05 11:29:10;;;;;;;5.15;4.28;;;;;;;14.82;26.97;98656.19;7389169;19;19927;-79
2023/04/05 11:32:00;;;;;;;5.00;4.50;;;;;;;15.88;26.28;98659.88;7390032;19;20535;-79
2023/04/05 11:34:26;;;;;;;5.32;4.50;;;;;;;15.21;26.69;98661.44;7388423;19;19919;-80
2023/04/05 11:36:53;;;;;;;6.35;4.57;;;;;;;13.87;27.76;98664.22;7395082;19;19923;-78
2023/04/05 11:39:20;;;;;;;7.60;6.43;;;;;;;12.84;29.90;98660.19;7397443;19;20259;-78
2023/04/05 11:42:06;;;;;;;5.47;4.60;;;;;;;12.04;29.94;98654.47;7394745;19;19918;-80
2023/04/05 11:44:44;;;;;;;5.25;4.43;;;;;;;12.49;30.92;98654.16;7392773;19;19939;-78
2023/04/05 11:47:12;;;;;;;4.35;3.95;;;;;;;13.05;30.01;98657.09;7392197;19;20517;-80
2023/04/05 11:49:40;;;;;;;5.68;5.13;;;;;;;13.59;31.17;98656.63;7391905;19;20372;-76
2023/04/05 11:52:16;;;;;;;5.22;4.07;;;;;;;14.63;29.13;98649.50;7386365;19;19927;-79
2023/04/05 11:54:47;;;;;;;7.30;4.60;;;;;;;14.52;29.22;98641.88;7394135;19;20364;-78
2023/04/05 11:57:18;;;;;;;5.25;4.22;;;;;;;14.05;28.84;98641.72;7394111;19;19918;-78
2023/04/05 11:59:46;;;;;;;5.70;3.97;;;;;;;15.23;28.40;98634.59;7396194;19;19919;-77
2023/04/05 12:02:13;;;;;;;6.70;4.65;;;;;;;15.45;27.35;98646.25;7383819;19;19926;-77
2023/04/05 12:04:39;;;;;;;5.97;4.70;;;;;;;14.71;27.40;98636.94;7390975;19;19952;-77
2023/04/05 12:07:14;;;;;;;7.57;5.38;;;;;;;13.60;28.57;98635.19;7390474;19;20613;-80
2023/04/05 12:10:04;;;;;;;5.50;4.80;;;;;;;12.54;30.33;98637.75;7395617;19;19911;-80
2023/04/05 12:12:36;;;;;;;5.72;4.50;;;;;;;13.15;29.89;98628.53;7399823;19;19941;-79
2023/04/05 12:15:04;;;;;;;6.18;4.32;;;;;;;14.10;30.17;98624.41;7388081;19;19964;-79
2023/04/05 12:17:42;;;;;;;7.80;5.00;;;;;;;14.10;29.56;98621.75;7396122;19;19919;-79
2023/04/05 12:20:10;;;;;;;5.00;4.50;;;;;;;13.74;27.96;98624.84;7391597;19;19978;-78
2023/04/05 12:22:39;;;;;;;5.68;4.30;;;;;;;14.15;29.42;98622.06;7394730;19;19930;-78
2023/04/05 12:25:07;;;;;;;4.55;4.15;;;;;;;13.29;30.08;98618.28;7385052;19;19915;-79
2023/04/05 12:27:34;;;;;;;5.13;4.63;;;;;;;13.64;30.00;98616.22;7398357;19;20460;-79
2023/04/05 12:30:09;;;;;;;5.72;4.70;;;;;;;13.16;29.59;98608.97;7392023;19;20287;-81
2023/04/05 12:32:46;;;;;;;4.90;4.18;;;;;;;13.50;31.39;98609.78;7392736;19;19922;-79
2023/04/05 12:35:18;;;;;;;5.22;4.60;;;;;;;14.49;29.71;98601.28;7391642;19;19965;-80
2023/04/05 12:37:45;;;;;;;6.50;4.63;;;;;;;14.13;27.79;98600.13;7398113;19;19915;-78
2023/04/05 12:40:13;;;;;;;4.90;4.25;;;;;;;13.60;30.71;98610.44;7389469;19;19919;-78
2023/04/05 12:42:40;;;;;;;4.28;3.80;;;;;;;13.75;28.68;98602.59;7388105;19;19938;-81
2023/04/05 12:45:11;;;;;;;5.82;4.20;;;;;;;13.67;29.73;98610.59;7384446;19;19919;-79
2023/04/05 12:47:58;;;;;;;4.40;3.60;;;;;;;14.37;30.84;98600.00;7394620;19;19914;-79
2023/04/05 12:50:30;;;;;;;4.70;4.20;;;;;;;13.61;28.23;98601.44;7393773;19;19939;-77
2023/04/05 12:53:04;;;;;;;5.28;4.03;;;;;;;13.90;30.52;98589.41;7388564;19;19935;-80
2023/04/05 12:55:31;;;;;;;5.20;4.70;;;;;;;13.56;30.00;98582.50;7389041;19;19940;-79
2023/04/05 12:57:59;;;;;;;5.60;4.22;;;;;;;13.65;32.19;98583.34;7384624;19;19922;-78
2023/04/05 13:00:29;;;;;;;6.63;4.78;;;;;;;13.17;28.94;98591.19;7392668;19;19922;-79
2023/04/05 13:02:57;;;;;;;5.22;4.28;;;;;;;12.77;29.11;98584.03;7385070;19;19933;-79
2023/04/05 13:05:26;;;;;;;5.07;4.28;;;;;;;12.86;31.20;98580.41;7390403;19;19919;-79
2023/04/05 13:07:52;;;;;;;5.18;4.25;;;;;;;13.06;31.83;98576.44;7393160;19;19915;-79
2023/04/05 13:10:20;;;;;;;5.15;3.63;;;;;;;13.16;31.12;98577.09;7394396;19;19915;-79
2023/04/05 13:12:48;;;;;;;4.45;3.88;;;;;;;12.65;30.23;98579.03;7385740;19;19918;-78
2023/04/05 13:15:15;;;;;;;5.30;4.38;;;;;;;12.50;32.44;98580.66;7381132;19;22906;-79
2023/04/05 13:17:44;;;;;;;6.90;6.30;;;;;;;13.01;32.60;98568.13;7386590;19;20257;-79
2023/04/05 13:20:11;;;;;;;5.85;5.20;;;;;;;13.34;32.15;98576.91;7385490;19;20397;-79
2023/04/05 13:22:38;;;;;;;5.72;4.13;;;;;;;13.53;31.26;98557.13;7383593;19;19926;-78
2023/04/05 13:25:05;;;;;;;4.38;3.97;;;;;;;13.61;31.12;98562.41;7371861;19;19925;-79
2023/04/05 13:27:32;;;;;;;6.22;4.22;;;;;;;13.22;29.02;98564.97;7388255;19;19918;-79
2023/04/05 13:30:00;;;;;;;7.22;4.85;;;;;;;12.66;29.89;98561.28;7386526;19;19929;-78
2023/04/05 13:32:28;;;;;;;5.15;4.65;;;;;;;13.04;31.36;98556.34;7390802;19;20557;-78
2023/04/05 13:34:55;;;;;;;5.38;3.97;;;;;;;13.05;29.29;98560.63;7388861;19;20333;-79
2023/04/05 13:37:22;;;;;;;4.45;3.78;;;;;;;13.09;30.05;98565.47;7391130;19;19922;-79
2023/04/05 13:39:48;;;;;;;3.97;3.55;;;;;;;13.20;31.82;98568.78;7389587;19;19921;-79
2023/04/05 13:42:15;;;;;;;5.07;3.70;;;;;;;12.90;28.80;98561.31;7390696;19;19948;-79
2023/04/05 13:44:42;;;;;;;6.43;3.95;;;;;;;12.41;28.53;98560.44;7391010;19;20378;-79
2023/04/05 13:47:09;;;;;;;6.50;5.05;;;;;;;12.34;29.91;98549.63;7390578;19;20021;-81
2023/04/05 13:49:36;;;;;;;4.57;4.07;;;;;;;11.15;31.00;98549.56;7391647;19;19922;-81
2023/04/05 13:52:04;;;;;;;6.60;5.78;;;;;;;11.27;29.97;98544.81;7392105;19;20278;-80
2023/04/05 13:54:31;;;;;;;4.47;4.00;;;;;;;11.78;32.08;98543.13;7393391;19;20356;-79
2023/04/05 13:56:57;;;;;;;5.07;4.05;;;;;;;11.89;31.23;98539.38;7389680;19;19944;-79
2023/04/05 13:59:27;;;;;;;4.47;3.55;;;;;;;12.16;32.50;98547.09;7395256;19;20004;-80
2023/04/05 14:01:58;;;;;;;4.72;3.50;;;;;;;12.26;31.17;98542.47;7391025;19;20004;-79
2023/04/05 14:04:25;;;;;;;4.20;3.80;;;;;;;12.39;32.06;98530.56;7390817;19;20352;-78
2023/04/05 14:06:52;;;;;;;5.00;4.60;;;;;;;12.51;33.02;98534.59;7395658;19;19922;-79
2023/04/05 14:09:19;;;;;;;4.13;3.38;;;;;;;12.57;32.41;98525.94;7390910;19;19922;-79
2023/04/05 14:11:49;;;;;;;4.72;3.42;;;;;;;12.16;30.54;98528.53;7384915;19;19926;-79
2023/04/05 14:14:16;;;;;;;4.38;3.97;;;;;;;11.82;28.85;98524.09;7389196;19;20336;-79
2023/04/05 14:16:44;;;;;;;5.38;3.38;;;;;;;12.14;31.81;98524.38;7390418;19;19919;-79
2023/04/05 14:19:15;;;;;;;6.28;4.25;;;;;;;12.03;30.48;98522.84;7384040;19;20616;-78
2023/04/05 14:21:45;;;;;;;5.20;4.28;;;;;;;11.96;31.19;98524.50;7388531;19;19960;-79
2023/04/05 14:24:12;;;;;;;4.93;4.45;;;;;;;12.09;32.07;98522.22;7389368;19;19915;-79
2023/04/05 14:26:39;;;;;;;5.53;3.65;;;;;;;12.23;31.86;98521.59;7393603;19;19931;-79
2023/04/05 14:29:09;;;;;;;4.30;3.40;;;;;;;12.37;32.69;98516.63;7390242;19;19939;-79
2023/04/05 14:31:36;;;;;;;3.97;3.30;;;;;;;12.26;29.94;98515.94;7392282;19;19919;-79
2023/04/05 14:34:03;;;;;;;4.75;3.25;;;;;;;12.39;32.46;98514.66;7381416;19;19934;-79
2023/04/05 14:36:31;;;;;;;4.45;3.58;;;;;;;12.41;31.91;98510.03;7392544;19;19926;-78
2023/04/05 14:38:58;;;;;;;4.93;3.65;;;;;;;12.39;30.84;98510.19;7383069;19;19929;-79
2023/04/05 14:41:27;;;;;;;5.70;3.20;;;;;;;12.51;32.19;98505.41;7389627;19;19986;-78
2023/04/05 14:43:54;;;;;;;3.42;3.00;;;;;;;12.53;31.55;98506.03;7392053;19;20344;-79
2023/04/05 14:46:21;;;;;;;4.72;3.70;;;;;;;12.57;31.76;98503.91;7388861;19;20324;-79
2023/04/05 14:48:52;;;;;;;4.35;3.63;;;;;;;12.46;31.34;98503.22;7395331;19;19926;-78
2023/04/05 14:51:18;;;;;;;4.47;3.60;;;;;;;12.37;31.38;98501.53;7389870;19;19952;-79
2023/04/05 14:53:45;;;;;;;4.75;3.75;;;;;;;12.31;31.96;98499.56;7387508;19;20715;-78
2023/04/05 14:56:12;;;;;;;3.20;2.90;;;;;;;12.34;30.40;98503.69;7381004;19;19930;-79
2023/04/05 14:58:39;;;;;;;4.00;3.63;;;;;;;12.14;29.56;98496.06;7399025;19;19926;-79
2023/04/05 15:01:08;;;;;;;5.68;4.43;;;;;;;11.62;29.84;98496.19;7383395;19;19926;-79
2023/04/05 15:03:36;;;;;;;4.40;3.53;;;;;;;11.69;32.65;98499.00;7382107;19;20336;-79
2023/04/05 15:06:04;;;;;;;6.68;4.82;;;;;;;11.70;31.83;98492.75;7386439;19;20435;-79
2023/04/05 15:08:31;;;;;;;5.45;3.83;;;;;;;11.79;33.46;98489.13;7389292;19;19915;-78
2023/04/05 15:10:58;;;;;;;5.43;4.47;;;;;;;11.73;34.81;98489.75;7388854;19;19919;-79
2023/04/05 15:13:25;;;;;;;3.85;3.17;;;;;;;11.75;31.48;98499.22;7379834;19;19922;-79
2023/04/05 15:15:52;;;;;;;6.68;4.78;;;;;;;11.72;32.83;98496.06;7388102;19;19914;-80
2023/04/05 15:18:19;;;;;;;4.35;3.90;;;;;;;11.15;33.23;98488.66;7388239;19;19954;-79
2023/04/05 15:20:46;;;;;;;4.47;3.90;;;;;;;11.22;33.73;98489.69;7392239;19;19948;-79
2023/04/05 15:23:13;;;;;;;6.05;4.68;;;;;;;11.25;32.55;98492.03;7387225;19;19914;-79
2023/04/05 15:25:39;;;;;;;5.68;3.92;;;;;;;11.35;34.53;98495.41;7390534;19;19943;-78
2023/04/05 15:28:06;;;;;;;7.75;5.30;;;;;;;11.32;32.51;98495.72;7383925;19;19939;-78
2023/04/05 15:30:34;;;;;;;6.10;5.50;;;;;;;11.44;35.79;98496.25;7387132;19;20276;-78
2023/04/05 15:33:01;;;;;;;4.53;3.60;;;;;;;11.36;33.29;98494.41;7383413;19;19967;-79
2023/04/05 15:35:28;;;;;;;4.95;4.07;;;;;;;11.35;32.45;98497.22;7389324;19;19915;-79
2023/04/05 15:37:55;;;;;;;4.90;4.38;;;;;;;10.88;33.25;98487.00;7389863;19;19978;-79
2023/04/05 15:40:22;;;;;;;6.72;4.38;;;;;;;10.73;33.64;98490.19;7386337;19;19918;-79
2023/04/05 15:42:49;;;;;;;10.52;4.90;;;;;;;10.72;34.22;98493.00;7386911;19;19927;-79
2023/04/05 15:45:16;;;;;;;5.85;4.78;;;;;;;10.75;34.40;98490.88;7381664;19;19921;-79
2023/04/05 15:47:44;;;;;;;6.97;5.97;;;;;;;10.76;35.37;98487.22;7389536;19;20488;-79
2023/04/05 15:50:11;;;;;;;9.25;6.05;;;;;;;10.44;34.31;98486.97;7387302;19;19926;-79
2023/04/05 15:52:37;;;;;;;5.90;4.55;;;;;;;10.46;34.42;98485.03;7388058;19;19915;-79
2023/04/05 15:55:05;;;;;;;6.82;5.13;;;;;;;10.17;33.88;98486.03;7380534;19;19915;-79
2023/04/05 15:57:32;;;;;;;6.40;4.97;;;;;;;10.25;33.80;98490.59;7390616;19;19923;-79
2023/04/05 15:59:58;;;;;;;5.72;5.13;;;;;;;10.07;34.51;98488.75;7384034;19;20471;-79
2023/04/05 16:02:26;;;;;;;5.85;4.55;;;;;;;10.27;34.95;98480.69;7382494;19;19984;-79
2023/04/05 16:04:52;;;;;;;5.25;4.13;;;;;;;10.41;34.77;98484.66;7388770;19;19933;-79
2023/04/05 16:07:19;;;;;;;6.50;4.95;;;;;;;10.22;34.56;98485.59;7386464;19;19947;-78
2023/04/05 16:09:46;;;;;;;4.40;3.97;;;;;;;10.44;34.24;98474.59;7389318;19;19921;-79
2023/04/05 16:12:13;;;;;;;5.32;4.75;;;;;;;10.55;34.42;98484.09;7387125;19;19918;-79
2023/04/05 16:14:39;;;;;;;5.13;4.40;;;;;;;10.29;35.19;98484.88;7386870;19;20363;-79
2023/04/05 16:17:06;;;;;;;5.10;4.65;;;;;;;10.44;35.44;98479.88;7381829;19;19943;-80
2023/04/05 16:19:33;;;;;;;6.18;4.38;;;;;;;10.55;34.59;98482.28;7395062;19;19927;-79
2023/04/05 16:22:02;;;;;;;4.80;4.35;;;;;;;10.51;34.92;98490.69;7390818;19;19915;-79
2023/04/05 16:24:30;;;;;;;6.95;6.30;;;;;;;10.24;35.12;98488.91;7393038;19;20392;-79
2023/04/05 16:26:57;;;;;;;7.25;5.03;;;;;;;9.52;35.41;98483.50;7395437;19;19921;-79
2023/04/05 16:29:24;;;;;;;6.70;4.47;;;;;;;9.94;36.05;98487.47;7393326;19;20669;-78
2023/04/05 16:31:52;;;;;;;5.65;4.57;;;;;;;10.00;35.64;98486.84;7398229;19;19915;-79
2023/04/05 16:34:19;;;;;;;6.07;4.85;;;;;;;10.03;35.70;98495.34;7387424;19;19925;-80
2023/04/05 16:36:45;;;;;;;6.88;4.53;;;;;;;10.12;34.53;98485.66;7397288;19;19921;-79
2023/04/05 16:39:12;;;;;;;6.78;6.13;;;;;;;10.12;35.44;98485.66;7397566;19;20555;-79
2023/04/05 16:41:39;;;;;;;5.38;4.88;;;;;;;10.04;35.44;98491.69;7399289;19;20011;-79
2023/04/05 16:44:06;;;;;;;6.75;4.93;;;;;;;10.00;35.58;98485.03;7393175;19;19919;-79
2023/04/05 16:46:33;;;;;;;6.32;4.35;;;;;;;10.08;35.11;98487.78;7400510;19;19946;-79
2023/04/05 16:49:00;;;;;;;4.78;3.97;;;;;;;10.12;35.25;98483.03;7392666;19;19943;-79
2023/04/05 16:51:27;;;;;;;8.88;4.88;;;;;;;10.01;34.48;98486.72;7390030;19;19925;-80
2023/04/05 16:53:54;;;;;;;5.90;4.25;;;;;;;10.10;36.10;98487.63;7392956;19;19910;-79
2023/04/05 16:56:22;;;;;;;10.40;6.15;;;;;;;9.93;35.67;98486.63;7391969;19;19915;-79
2023/04/05 16:58:49;;;;;;;12.27;9.52;;;;;;;9.86;33.83;98491.66;7395224;19;20612;-78
2023/04/05 17:01:15;;;;;;;22.90;13.77;;;;;;;9.75;33.66;98483.94;7395423;19;19936;-79
2023/04/05 17:03:45;;;;;;;10.60;5.60;;;;;;;9.72;33.07;98483.44;7397032;19;19925;-79
2023/04/05 17:06:13;;;;;;;6.30;4.90;;;;;;;9.75;33.62;98485.75;7393453;19;19925;-78
2023/04/05 17:08:40;;;;;;;6.35;4.82;;;;;;;9.72;35.19;98488.72;7398917;19;19994;-79
2023/04/05 17:11:09;;;;;;;6.47;4.05;;;;;;;9.61;36.81;98487.94;7393746;19;20472;-79
2023/04/05 17:13:35;;;;;;;6.93;5.00;;;;;;;9.51;36.41;98492.41;7393965;19;19926;-79
2023/04/05 17:16:02;;;;;;;5.93;5.05;;;;;;;9.36;35.95;98496.50;7400299;19;19914;-81
2023/04/05 17:18:29;;;;;;;6.88;5.18;;;;;;;9.27;37.31;98492.06;7390412;19;20688;-79
2023/04/05 17:20:56;;;;;;;9.02;5.68;;;;;;;9.16;38.71;98498.38;7393428;19;20293;-79
2023/04/05 17:23:24;;;;;;;7.88;6.38;;;;;;;9.08;38.78;98492.97;7389965;19;19934;-79
2023/04/05 17:25:51;;;;;;;7.55;5.65;;;;;;;8.96;40.29;98495.78;7401318;19;19935;-79
2023/04/05 17:28:18;;;;;;;8.85;7.88;;;;;;;8.77;39.53;98499.31;7400902;19;19955;-79
2023/04/05 17:30:45;;;;;;;8.88;7.63;;;;;;;8.75;41.56;98506.53;7403663;19;20280;-79
2023/04/05 17:33:14;;;;;;;8.43;6.00;;;;;;;8.61;41.42;98499.06;7394046;19;19930;-79
2023/04/05 17:35:41;;;;;;;7.53;5.38;;;;;;;8.48;39.31;98498.50;7400607;19;19929;-79
2023/04/05 17:38:08;;;;;;;7.35;6.65;;;;;;;8.48;41.86;98511.69;7401058;19;19923;-79
2023/04/05 17:40:35;;;;;;;9.52;6.75;;;;;;;8.30;41.04;98507.06;7399824;19;19941;-79
2023/04/05 17:43:02;;;;;;;13.00;8.85;;;;;;;8.23;42.71;98507.75;7394880;19;19919;-79
2023/04/05 17:45:29;;;;;;;12.25;7.53;;;;;;;8.19;43.81;98511.63;7396759;19;19927;-79
2023/04/05 17:47:56;;;;;;;11.50;9.63;;;;;;;8.04;45.12;98511.19;7402278;19;19923;-79
2023/04/05 17:50:23;;;;;;;15.52;10.52;;;;;;;7.93;45.20;98514.78;7403283;19;19915;-79
2023/04/05 17:52:50;;;;;;;11.90;8.38;;;;;;;7.83;46.73;98519.19;7399342;19;19925;-79
2023/04/05 17:55:17;;;;;;;14.88;10.10;;;;;;;7.72;46.51;98511.41;7393410;19;19914;-80
2023/04/05 17:57:50;;;;;;;9.95;7.95;;;;;;;7.58;46.99;98510.81;7400552;19;19922;-79
2023/04/05 18:00:17;;;;;;;8.48;5.57;;;;;;;7.47;46.20;98514.34;7404313;19;19927;-79
2023/04/05 18:02:44;;;;;;;8.50;5.55;;;;;;;7.40;47.29;98518.50;7403995;19;19919;-79
2023/04/05 18:05:12;;;;;;;7.43;6.00;;;;;;;7.31;46.98;98514.00;7393885;19;19926;-79
2023/04/05 18:07:41;;;;;;;7.00;5.93;;;;;;;7.23;48.38;98511.22;7408415;19;19921;-80
2023/04/05 18:10:08;;;;;;;7.43;5.88;;;;;;;7.15;48.54;98505.78;7402676;19;19986;-79
2023/04/05 18:12:35;;;;;;;7.97;6.13;;;;;;;7.07;48.22;98516.94;7408486;19;19931;-79
2023/04/05 18:15:03;;;;;;;7.93;5.72;;;;;;;7.06;47.16;98511.78;7400431;19;19918;-79
2023/04/05 18:17:29;;;;;;;7.28;5.22;;;;;;;6.95;48.29;98513.56;7405698;19;20353;-79
2023/04/05 18:19:56;;;;;;;6.00;5.22;;;;;;;6.93;48.73;98520.75;7404288;19;19907;-79
2023/04/05 18:22:23;;;;;;;7.68;4.80;;;;;;;6.89;49.55;98524.56;7401902;19;19926;-79
2023/04/05 18:24:50;;;;;;;8.07;5.90;;;;;;;6.81;50.06;98525.22;7404432;19;19919;-79
2023/04/05 18:27:16;;;;;;;7.25;5.68;;;;;;;6.70;47.01;98527.09;7401688;19;19915;-79
2023/04/05 18:29:45;;;;;;;7.40;5.28;;;;;;;6.74;49.22;98533.75;7401632;19;19910;-79
2023/04/05 18:32:12;;;;;;;6.53;5.22;;;;;;;6.67;49.93;98535.22;7400887;19;19997;-79
2023/04/05 18:34:39;;;;;;;6.10;5.43;;;;;;;6.58;49.64;98534.19;7402180;19;19914;-79
2023/04/05 18:37:06;;;;;;;7.18;5.38;;;;;;;6.55;51.13;98537.91;7403614;19;19922;-79
2023/04/05 18:39:32;;;;;;;7.43;5.72;;;;;;;6.50;51.49;98537.47;7402607;19;19918;-79
2023/04/05 18:41:59;;;;;;;6.65;5.40;;;;;;;6.45;51.13;98542.25;7402839;19;19919;-79
2023/04/05 18:44:26;;;;;;;8.15;7.35;;;;;;;6.45;51.38;98539.63;7397599;19;20474;-79
2023/04/05 18:46:53;;;;;;;8.10;5.47;;;;;;;6.41;51.94;98550.50;7402439;19;19915;-79
2023/04/05 18:49:20;;;;;;;7.22;6.03;;;;;;;6.38;51.54;98548.97;7404811;19;19927;-79
2023/04/05 18:51:47;;;;;;;8.43;7.45;;;;;;;6.33;51.47;98551.13;7404576;19;19911;-79
2023/04/05 18:54:17;;;;;;;8.05;6.47;;;;;;;6.25;51.52;98550.94;7401204;19;20359;-79
2023/04/05 18:56:44;;;;;;;10.15;8.98;;;;;;;6.20;52.08;98553.09;7400939;19;20532;-79
2023/04/05 18:59:11;;;;;;;8.88;7.35;;;;;;;6.15;52.35;98551.66;7403912;19;19919;-79
2023/04/05 19:01:38;;;;;;;10.30;7.78;;;;;;;6.14;52.69;98555.25;7404106;19;19990;-79
2023/04/05 19:04:05;;;;;;;8.30;5.90;;;;;;;6.16;51.74;98555.09;7410660;19;19957;-79
2023/04/05 19:06:33;;;;;;;7.97;6.95;;;;;;;6.25;51.33;98561.44;7403994;19;19922;-79
2023/04/05 19:09:00;;;;;;;11.07;6.93;;;;;;;6.27;50.18;98555.09;7399440;19;19948;-79
2023/04/05 19:11:27;;;;;;;10.60;6.00;;;;;;;6.25;51.44;98557.00;7400454;19;19926;-79
2023/04/05 19:13:54;;;;;;;6.07;5.47;;;;;;;6.24;51.78;98562.38;7398758;19;19932;-79
2023/04/05 19:16:21;;;;;;;7.18;5.95;;;;;;;6.24;52.01;98565.00;7388458;19;19922;-78
2023/04/05 19:18:48;;;;;;;6.55;5.82;;;;;;;6.13;51.83;98556.22;7387601;19;20467;-78
2023/04/05 19:21:14;;;;;;;8.43;7.00;;;;;;;6.05;52.22;98566.47;7387112;19;19918;-78
2023/04/05 19:23:41;;;;;;;8.35;7.55;;;;;;;6.01;52.59;98562.44;7388505;19;19938;-79
2023/04/05 19:26:08;;;;;;;7.43;6.07;;;;;;;5.98;52.21;98559.22;7388896;19;20285;-78
2023/04/05 19:28:35;;;;;;;7.03;6.15;;;;;;;5.99;52.27;98569.59;7388990;19;19915;-78
2023/04/05 19:31:02;;;;;;;9.18;6.75;;;;;;;5.96;51.99;98567.22;7392398;19;19933;-78
2023/04/05 19:33:30;;;;;;;8.50;6.93;;;;;;;5.90;51.52;98570.31;7390504;19;19922;-78
2023/04/05 19:42:52;;;;;;;10.85;7.88;;;;;;;5.79;53.39;98565.88;7353936;19;19918;-75
2023/04/05 19:45:27;;;;;;;11.13;7.25;;;;;;;5.75;53.98;98566.25;7365847;19;19947;-75
2023/04/05 19:47:56;;;;;;;11.23;7.70;;;;;;;5.71;54.12;98566.50;7367582;19;19939;-75
2023/04/05 19:50:31;;;;;;;8.93;7.68;;;;;;;5.71;53.93;98571.75;7366958;19;19922;-76
2023/04/05 19:53:06;;;;;;;9.75;7.28;;;;;;;5.68;52.88;98568.53;7369451;19;19915;-69
2023/04/05 19:55:35;;;;;;;11.75;7.55;;;;;;;5.64;52.71;98567.13;7369304;19;19918;-70
2023/04/05 19:58:08;;;;;;;11.70;7.50;;;;;;;5.58;50.93;98557.06;7369793;19;19945;-69
2023/04/05 20:00:38;;;;;;;11.25;8.27;;;;;;;5.65;53.68;98564.34;7377840;19;19922;-70
2023/04/05 20:03:21;;;;;;;11.65;8.57;;;;;;;5.62;53.82;98561.13;7383299;19;19922;-69
2023/04/05 20:05:48;;;;;;;14.30;10.77;;;;;;;5.57;54.39;98558.03;7389131;19;20212;-69
2023/04/05 20:08:14;;;;;;;10.98;8.52;;;;;;;5.53;55.12;98565.31;7381256;19;19919;-69
2023/04/05 20:10:46;;;;;;;11.80;8.23;;;;;;;5.47;55.44;98565.78;7380661;19;19911;-69
2023/04/05 20:13:16;;;;;;;9.48;7.65;;;;;;;5.42;55.39;98563.50;7376814;19;19978;-69
2023/04/05 20:15:45;;;;;;;11.63;9.10;;;;;;;5.38;55.73;98566.50;7389796;19;19926;-70
2023/04/05 20:18:21;;;;;;;12.93;8.38;;;;;;;5.30;55.48;98563.63;7386014;19;19926;-70
2023/04/05 20:20:48;;;;;;;11.82;9.75;;;;;;;5.30;55.65;98561.00;7389351;19;19919;-72
2023/04/05 20:23:20;;;;;;;11.52;8.73;;;;;;;5.28;55.66;98561.94;7388147;19;19919;-72
2023/04/05 20:25:49;;;;;;;11.15;8.55;;;;;;;5.27;56.04;98564.72;7390335;19;19944;-72
2023/04/05 20:28:31;;;;;;;11.35;8.90;;;;;;;5.24;56.44;98565.78;7381415;19;20394;-72
2023/04/05 20:30:57;;;;;;;13.02;8.75;;;;;;;5.23;56.57;98558.84;7388451;19;19939;-70
2023/04/05 20:33:44;;;;;;;11.02;9.93;;;;;;;5.20;56.25;98563.50;7382295;19;20678;-69
2023/04/05 20:41:59;;;;;;;13.18;10.32;;;;;;;5.05;56.49;98568.09;7386309;19;19922;-80
2023/04/05 20:44:26;;;;;;;10.23;7.90;;;;;;;5.08;56.53;98573.13;7402171;19;19975;-80
2023/04/05 20:46:56;;;;;;;11.05;9.80;;;;;;;5.06;56.88;98572.41;7392796;19;20572;-79
2023/04/05 20:49:27;;;;;;;11.35;8.27;;;;;;;5.04;57.06;98569.06;7380927;19;19923;-80
2023/04/05 20:58:42;;;;;;;11.50;10.23;;;;;;;4.98;56.63;98566.94;7360182;19;19943;-79
2023/04/05 21:01:09;;;;;;;12.82;8.88;;;;;;;4.98;56.88;98570.38;7387727;19;19949;-80
2023/04/05 21:03:38;;;;;;;12.02;8.07;;;;;;;4.93;55.92;98564.63;7381082;19;19954;-80
2023/04/05 21:06:07;;;;;;;11.10;8.88;;;;;;;4.89;55.45;98570.22;7384581;19;20356;-80
2023/04/05 21:08:35;;;;;;;12.70;8.00;;;;;;;4.86;55.80;98567.84;7383489;19;19921;-80
2023/04/05 21:11:02;;;;;;;8.88;7.55;;;;;;;4.81;56.83;98578.66;7383491;19;19927;-79
2023/04/05 21:13:29;;;;;;;11.52;8.00;;;;;;;4.75;57.13;98577.34;7389380;19;19915;-80
2023/04/05 21:15:56;;;;;;;12.40;8.45;;;;;;;4.70;57.38;98578.63;7383215;19;19935;-79
2023/04/05 21:18:24;;;;;;;10.50;7.95;;;;;;;4.67;57.71;98581.47;7372957;19;20404;-79
2023/04/05 21:20:52;;;;;;;12.15;8.43;;;;;;;4.61;57.76;98577.53;7380101;19;19943;-79
2023/04/05 21:23:22;;;;;;;10.57;7.95;;;;;;;4.57;58.37;98570.84;7383695;19;19943;-79
2023/04/05 21:25:49;;;;;;;11.15;8.25;;;;;;;4.54;58.61;98568.44;7391483;19;19932;-79
2023/04/05 21:28:16;;;;;;;11.27;9.07;;;;;;;4.48;57.91;98574.97;7384575;19;19915;-80
2023/04/05 21:30:43;;;;;;;10.20;9.00;;;;;;;4.44;58.03;98567.44;7373461;19;20404;-80
2023/04/05 21:33:10;;;;;;;11.93;8.95;;;;;;;4.39;58.66;98568.59;7386297;19;19918;-80
2023/04/05 21:35:37;;;;;;;11.15;8.95;;;;;;;4.43;59.24;98573.66;7389230;19;19934;-80
2023/04/05 21:38:04;;;;;;;12.50;8.77;;;;;;;4.40;59.33;98572.09;7382648;19;19922;-80
2023/04/05 21:40:54;;;;;;;13.13;9.20;;;;;;;4.36;59.39;98568.84;7384618;19;19919;-80
2023/04/05 21:43:21;;;;;;;14.52;9.23;;;;;;;4.35;59.64;98567.16;7390308;19;19922;-80
2023/04/05 21:45:47;;;;;;;11.70;8.23;;;;;;;4.32;59.65;98572.63;7392821;19;19926;-79
2023/04/05 21:48:26;;;;;;;13.40;8.98;;;;;;;4.30;59.67;98571.06;7391600;19;19944;-80
2023/04/05 21:50:53;;;;;;;14.30;8.95;;;;;;;4.28;59.43;98575.59;7394089;19;19923;-80
2023/04/05 21:53:22;;;;;;;15.07;9.20;;;;;;;4.24;59.83;98580.22;7388096;19;19923;-81
2023/04/05 21:55:49;;;;;;;12.38;9.80;;;;;;;4.23;60.18;98580.31;7393504;19;19926;-80
2023/04/05 21:58:18;;;;;;;11.07;9.02;;;;;;;4.17;60.09;98574.56;7387786;19;20368;-80
2023/04/05 22:00:45;;;;;;;10.73;8.40;;;;;;;3.85;58.72;98571.63;7390658;19;20439;-79
2023/04/05 22:03:12;;;;;;;12.02;8.82;;;;;;;3.83;59.69;98568.28;7392942;19;19919;-80
2023/04/05 22:05:39;;;;;;;13.23;9.57;;;;;;;3.79;59.41;98574.69;7392328;19;19922;-79
2023/04/05 22:08:06;;;;;;;12.85;9.55;;;;;;;3.58;58.03;98570.94;7385570;19;19921;-80
2023/04/05 22:10:34;;;;;;;11.75;8.48;;;;;;;3.50;58.99;98574.94;7389319;19;19990;-79
2023/04/05 22:13:01;;;;;;;14.13;10.32;;;;;;;3.69;60.08;98574.50;7389373;19;19922;-80
2023/04/05 22:15:28;;;;;;;14.23;9.13;;;;;;;3.69;59.81;98573.66;7390874;19;19919;-80
2023/04/05 22:17:55;;;;;;;11.68;8.48;;;;;;;3.75;60.60;98565.38;7388314;19;19922;-79
2023/04/05 22:20:22;;;;;;;11.00;9.43;;;;;;;3.78;60.69;98569.56;7388766;19;20259;-80
2023/04/05 22:22:49;;;;;;;11.20;8.43;;;;;;;3.73;60.63;98570.72;7388393;19;19938;-80
2023/04/05 22:25:16;;;;;;;10.55;7.75;;;;;;;3.70;59.55;98584.00;7392411;19;20530;-80
2023/04/05 22:27:43;;;;;;;11.43;8.25;;;;;;;3.75;60.76;98578.47;7388053;19;19944;-80
2023/04/05 22:30:10;;;;;;;11.32;8.10;;;;;;;3.74;61.23;98585.47;7388131;19;19943;-81
2023/04/05 22:32:37;;;;;;;12.80;8.82;;;;;;;3.66;61.02;98582.56;7407041;19;19926;-80
2023/04/05 22:35:05;;;;;;;13.75;9.40;;;;;;;3.51;60.11;98587.06;7394533;19;19922;-80
2023/04/05 22:37:35;;;;;;;12.82;8.63;;;;;;;3.57;60.99;98582.38;7385963;19;20559;-80
2023/04/05 22:40:03;;;;;;;13.68;7.72;;;;;;;3.60;62.07;98579.53;7385845;19;20348;-80
2023/04/05 22:42:30;;;;;;;12.95;9.45;;;;;;;3.57;62.24;98569.28;7385824;19;19985;-81
2023/04/05 22:44:57;;;;;;;11.82;8.82;;;;;;;3.58;62.88;98570.94;7389726;19;19930;-80
2023/04/05 22:47:24;;;;;;;14.23;8.45;;;;;;;3.56;62.41;98572.84;7386920;19;19922;-81
2023/04/05 22:49:51;;;;;;;13.48;8.95;;;;;;;3.56;62.82;98572.84;7388770;19;19943;-81
2023/04/05 22:52:18;;;;;;;10.05;7.68;;;;;;;3.58;62.51;98568.31;7388554;19;19944;-78
2023/04/05 22:54:45;;;;;;;11.27;9.15;;;;;;;3.55;62.65;98565.94;7387454;19;19918;-78
2023/04/05 22:57:12;;;;;;;11.70;8.43;;;;;;;3.54;62.60;98565.09;7391797;19;20346;-79
2023/04/05 22:59:39;;;;;;;9.55;7.93;;;;;;;3.49;62.75;98565.41;7383780;19;19935;-79
2023/04/05 23:02:06;;;;;;;11.18;10.07;;;;;;;3.49;63.43;98568.03;7391597;19;20261;-80
2023/04/05 23:04:32;;;;;;;11.98;10.45;;;;;;;3.39;62.63;98567.00;7389628;19;20491;-80
2023/04/05 23:07:00;;;;;;;11.13;8.73;;;;;;;3.43;63.39;98565.00;7391162;19;19922;-81
2023/04/05 23:09:27;;;;;;;10.82;8.63;;;;;;;3.42;63.17;98564.19;7386112;19;19919;-81
2023/04/05 23:11:53;;;;;;;12.20;7.68;;;;;;;3.37;63.33;98566.28;7392048;19;19911;-81
2023/04/05 23:14:20;;;;;;;11.20;8.30;;;;;;;3.39;63.58;98574.00;7390863;19;20001;-80
2023/04/05 23:16:47;;;;;;;10.65;7.85;;;;;;;3.39;63.78;98568.78;7387877;19;19994;-81